Time,TemperatureF,DewpointF,PressureIn,WindDirection,WindDirectionDegrees,WindSpeedMPH,WindSpeedGustMPH,Humidity,HourlyPrecipIn,Conditions,Clouds,dailyrainin,SoftwareType,DateUTC
2013-01-21 00:00:00,38.5,29.9,29.98,NW,304,0.0,1.0,71,0.00,,CLR,0.00,VWS V14.00,2013-01-21 05:00:00,
2013-01-21 00:01:00,38.5,29.9,29.98,NW,304,0.0,1.0,71,0.00,,CLR,0.00,VWS V14.00,2013-01-21 05:01:00,
2013-01-21 00:03:00,38.4,29.8,29.98,NW,304,0.0,0.0,71,0.00,,CLR,0.00,VWS V14.00,2013-01-21 05:03:00,
2013-01-21 00:08:00,37.9,29.7,29.98,NW,304,0.0,1.0,72,0.00,,CLR,0.00,VWS V14.00,2013-01-21 05:08:00,
2013-01-21 00:13:00,37.7,29.8,29.98,NW,304,0.0,1.0,73,0.00,,CLR,0.00,VWS V14.00,2013-01-21 05:13:00,
2013-01-21 00:18:00,37.8,29.9,29.97,NW,304,0.0,1.0,73,0.00,,CLR,0.00,VWS V14.00,2013-01-21 05:18:00,
2013-01-21 00:23:00,37.8,29.9,29.97,NW,304,0.0,1.0,73,0.00,,CLR,0.00,VWS V14.00,2013-01-21 05:23:00,
2013-01-21 00:28:00,37.5,29.6,29.97,NW,304,0.0,1.0,73,0.00,,CLR,0.00,VWS V14.00,2013-01-21 05:28:00,
2013-01-21 00:33:00,37.3,29.1,29.97,NW,304,0.0,0.0,72,0.00,,CLR,0.00,VWS V14.00,2013-01-21 05:33:00,
2013-01-21 00:39:00,37.2,29.7,29.97,NW,304,0.0,0.0,74,0.00,,CLR,0.00,VWS V14.00,2013-01-21 05:39:00,
2013-01-21 00:44:00,36.9,29.4,29.97,NW,304,0.0,0.0,74,0.00,,CLR,0.00,VWS V14.00,2013-01-21 05:44:00,
2013-01-21 00:49:00,36.7,30.2,29.97,NW,304,0.0,0.0,77,0.00,,CLR,0.00,VWS V14.00,2013-01-21 05:49:00,
2013-01-21 00:54:00,36.4,29.2,29.97,NW,304,0.0,0.0,75,0.00,,CLR,0.00,VWS V14.00,2013-01-21 05:54:00,
2013-01-21 00:58:00,36.0,29.2,29.97,NW,304,0.0,0.0,76,0.00,,CLR,0.00,VWS V14.00,2013-01-21 05:58:00,
2013-01-21 01:03:00,35.6,28.8,29.96,NW,304,0.0,0.0,76,0.00,,CLR,0.00,VWS V14.00,2013-01-21 06:03:00,
2013-01-21 01:08:00,35.6,28.8,29.96,NW,304,0.0,0.0,76,0.00,,CLR,0.00,VWS V14.00,2013-01-21 06:08:00,
2013-01-21 01:13:00,35.3,29.1,29.96,NW,304,0.0,0.0,78,0.00,,CLR,0.00,VWS V14.00,2013-01-21 06:13:00,
2013-01-21 01:18:00,35.0,28.9,29.96,WNW,298,0.0,0.0,78,0.00,,CLR,0.00,VWS V14.00,2013-01-21 06:18:00,
2013-01-21 01:23:00,35.3,29.5,29.96,SE,134,0.0,0.0,79,0.00,,CLR,0.00,VWS V14.00,2013-01-21 06:23:00,
2013-01-21 01:28:00,35.1,28.9,29.96,SE,134,0.0,0.0,78,0.00,,CLR,0.00,VWS V14.00,2013-01-21 06:28:00,
2013-01-21 01:30:00,34.9,29.1,29.96,SE,134,0.0,0.0,79,0.00,,CLR,0.00,VWS V14.00,2013-01-21 06:30:00,
2013-01-21 01:33:00,34.4,28.6,29.96,SE,134,0.0,0.0,79,0.00,,CLR,0.00,VWS V14.00,2013-01-21 06:33:00,
2013-01-21 01:38:00,33.5,28.6,29.96,SE,134,0.0,1.0,82,0.00,,CLR,0.00,VWS V14.00,2013-01-21 06:38:00,
2013-01-21 01:43:00,32.8,28.2,29.96,SE,134,0.0,1.0,83,0.00,,CLR,0.00,VWS V14.00,2013-01-21 06:43:00,
2013-01-21 01:48:00,32.4,28.1,29.96,NE,44,0.0,1.0,84,0.00,,CLR,0.00,VWS V14.00,2013-01-21 06:48:00,
2013-01-21 01:53:00,32.4,28.1,29.96,NE,41,0.0,1.0,84,0.00,,CLR,0.00,VWS V14.00,2013-01-21 06:53:00,
2013-01-21 01:58:00,32.4,28.1,29.96,NE,41,0.0,1.0,84,0.00,,CLR,0.00,VWS V14.00,2013-01-21 06:58:00,
2013-01-21 02:00:00,32.3,28.0,29.96,NE,41,0.0,1.0,84,0.00,,CLR,0.00,VWS V14.00,2013-01-21 07:00:00,
2013-01-21 02:03:00,31.9,27.9,29.96,NE,41,0.0,0.0,85,0.00,,CLR,0.00,VWS V14.00,2013-01-21 07:03:00,
2013-01-21 02:08:00,31.7,27.7,29.96,NE,41,0.0,2.0,85,0.00,,CLR,0.00,VWS V14.00,2013-01-21 07:08:00,
2013-01-21 02:13:00,32.0,28.3,29.96,NE,48,0.0,2.0,86,0.00,,CLR,0.00,VWS V14.00,2013-01-21 07:13:00,
2013-01-21 02:18:00,32.3,28.3,29.96,NE,51,0.0,2.0,85,0.00,,CLR,0.00,VWS V14.00,2013-01-21 07:18:00,
2013-01-21 02:23:00,32.4,28.4,29.96,NE,51,0.0,2.0,85,0.00,,CLR,0.00,VWS V14.00,2013-01-21 07:23:00,
2013-01-21 02:28:00,32.5,28.5,29.96,NE,51,0.0,2.0,85,0.00,,CLR,0.00,VWS V14.00,2013-01-21 07:28:00,
2013-01-21 02:30:00,32.4,28.4,29.97,NE,51,0.0,2.0,85,0.00,,CLR,0.00,VWS V14.00,2013-01-21 07:30:00,
2013-01-21 02:33:00,32.3,28.3,29.97,NE,51,0.0,0.0,85,0.00,,CLR,0.00,VWS V14.00,2013-01-21 07:33:00,
2013-01-21 02:38:00,32.1,28.4,29.97,NE,51,0.0,0.0,86,0.00,,CLR,0.00,VWS V14.00,2013-01-21 07:38:00,
2013-01-21 02:43:00,31.7,28.0,29.97,NE,51,0.0,0.0,86,0.00,,CLR,0.00,VWS V14.00,2013-01-21 07:43:00,
2013-01-21 02:48:00,31.3,27.6,29.97,NE,51,0.0,0.0,86,0.00,,CLR,0.00,VWS V14.00,2013-01-21 07:48:00,
2013-01-21 02:53:00,31.0,27.6,29.97,NE,51,0.0,0.0,87,0.00,,CLR,0.00,VWS V14.00,2013-01-21 07:53:00,
2013-01-21 02:58:00,30.7,27.9,29.97,NE,51,0.0,0.0,89,0.00,,CLR,0.00,VWS V14.00,2013-01-21 07:58:00,
2013-01-21 03:00:00,30.7,27.9,29.97,NE,51,0.0,0.0,89,0.00,,CLR,0.00,VWS V14.00,2013-01-21 08:00:00,
2013-01-21 03:03:00,30.8,27.7,29.97,NE,51,0.0,0.0,88,0.00,,CLR,0.00,VWS V14.00,2013-01-21 08:03:00,
2013-01-21 03:09:00,30.8,27.7,29.97,NE,51,0.0,0.0,88,0.00,,CLR,0.00,VWS V14.00,2013-01-21 08:09:00,
2013-01-21 03:14:00,30.7,27.6,29.97,NE,51,0.0,0.0,88,0.00,,CLR,0.00,VWS V14.00,2013-01-21 08:14:00,
2013-01-21 03:19:00,30.7,27.6,29.97,NE,51,0.0,0.0,88,0.00,,CLR,0.00,VWS V14.00,2013-01-21 08:19:00,
2013-01-21 03:24:00,30.8,27.7,29.97,NE,51,0.0,0.0,88,0.00,,CLR,0.00,VWS V14.00,2013-01-21 08:24:00,
2013-01-21 03:29:00,30.8,27.7,29.97,NE,51,0.0,0.0,88,0.00,,CLR,0.00,VWS V14.00,2013-01-21 08:29:00,
2013-01-21 03:30:00,30.8,27.7,29.96,NE,51,0.0,0.0,88,0.00,,CLR,0.00,VWS V14.00,2013-01-21 08:30:00,
2013-01-21 03:34:00,30.8,27.7,29.96,NE,51,0.0,0.0,88,0.00,,CLR,0.00,VWS V14.00,2013-01-21 08:34:00,
2013-01-21 03:39:00,30.7,27.6,29.96,NE,51,0.0,0.0,88,0.00,,CLR,0.00,VWS V14.00,2013-01-21 08:39:00,
2013-01-21 03:44:00,30.5,27.4,29.96,NE,51,0.0,0.0,88,0.00,,CLR,0.00,VWS V14.00,2013-01-21 08:44:00,
2013-01-21 03:49:00,30.3,27.2,29.97,NE,51,0.0,0.0,88,0.00,,CLR,0.00,VWS V14.00,2013-01-21 08:49:00,
2013-01-21 03:54:00,30.1,27.3,29.97,NE,51,0.0,0.0,89,0.00,,CLR,0.00,VWS V14.00,2013-01-21 08:54:00,
2013-01-21 03:58:00,30.0,27.2,29.97,NE,51,0.0,0.0,89,0.00,,CLR,0.00,VWS V14.00,2013-01-21 08:58:00,
2013-01-21 04:00:00,30.0,27.2,29.96,NE,51,0.0,0.0,89,0.00,,CLR,0.00,VWS V14.00,2013-01-21 09:00:00,
2013-01-21 04:03:00,30.0,27.2,29.96,NE,51,0.0,0.0,89,0.00,,CLR,0.00,VWS V14.00,2013-01-21 09:03:00,
2013-01-21 04:08:00,30.0,27.2,29.96,NE,51,0.0,0.0,89,0.00,,CLR,0.00,VWS V14.00,2013-01-21 09:08:00,
2013-01-21 04:13:00,29.9,27.1,29.96,NE,51,0.0,0.0,89,0.00,,CLR,0.00,VWS V14.00,2013-01-21 09:13:00,
2013-01-21 04:18:00,30.0,27.4,29.96,NE,51,0.0,0.0,90,0.00,,CLR,0.00,VWS V14.00,2013-01-21 09:18:00,
2013-01-21 04:23:00,30.1,27.3,29.96,NE,51,0.0,0.0,89,0.00,,CLR,0.00,VWS V14.00,2013-01-21 09:23:00,
2013-01-21 04:28:00,29.8,27.0,29.96,NE,51,0.0,0.0,89,0.00,,CLR,0.00,VWS V14.00,2013-01-21 09:28:00,
2013-01-21 04:33:00,29.6,26.8,29.96,NE,51,0.0,0.0,89,0.00,,CLR,0.00,VWS V14.00,2013-01-21 09:33:00,
2013-01-21 04:38:00,29.6,27.0,29.96,NE,51,0.0,0.0,90,0.00,,CLR,0.00,VWS V14.00,2013-01-21 09:38:00,
2013-01-21 04:44:00,29.6,27.0,29.96,NE,51,0.0,0.0,90,0.00,,CLR,0.00,VWS V14.00,2013-01-21 09:44:00,
2013-01-21 04:49:00,29.5,26.9,29.96,NE,51,0.0,0.0,90,0.00,,CLR,0.00,VWS V14.00,2013-01-21 09:49:00,
2013-01-21 04:54:00,29.3,26.7,29.96,NE,51,0.0,0.0,90,0.00,,CLR,0.00,VWS V14.00,2013-01-21 09:54:00,
2013-01-21 04:59:00,29.2,26.9,29.96,NE,51,0.0,0.0,91,0.00,,CLR,0.00,VWS V14.00,2013-01-21 09:59:00,
2013-01-21 05:00:00,29.2,26.9,29.96,NE,51,0.0,0.0,91,0.00,,CLR,0.00,VWS V14.00,2013-01-21 10:00:00,
2013-01-21 05:03:00,29.2,26.9,29.96,NE,51,1.0,1.0,91,0.00,,CLR,0.00,VWS V14.00,2013-01-21 10:03:00,
2013-01-21 05:09:00,29.2,26.9,29.96,NE,51,0.0,1.0,91,0.00,,CLR,0.00,VWS V14.00,2013-01-21 10:09:00,
2013-01-21 05:13:00,29.2,26.9,29.96,NE,51,0.0,1.0,91,0.00,,CLR,0.00,VWS V14.00,2013-01-21 10:13:00,
2013-01-21 05:19:00,29.2,26.9,29.96,NE,51,0.0,1.0,91,0.00,,CLR,0.00,VWS V14.00,2013-01-21 10:19:00,
2013-01-21 05:23:00,29.1,26.8,29.96,NE,51,0.0,1.0,91,0.00,,CLR,0.00,VWS V14.00,2013-01-21 10:23:00,
2013-01-21 05:28:00,28.8,26.5,29.96,NE,51,0.0,1.0,91,0.00,,CLR,0.00,VWS V14.00,2013-01-21 10:28:00,
2013-01-21 05:30:00,28.8,26.5,29.95,NE,51,0.0,1.0,91,0.00,,CLR,0.00,VWS V14.00,2013-01-21 10:30:00,
2013-01-21 05:33:00,28.7,26.4,29.95,NE,51,0.0,1.0,91,0.00,,CLR,0.00,VWS V14.00,2013-01-21 10:33:00,
2013-01-21 05:38:00,28.7,26.4,29.95,NE,51,0.0,1.0,91,0.00,,CLR,0.00,VWS V14.00,2013-01-21 10:38:00,
2013-01-21 05:43:00,28.7,26.7,29.95,NE,51,0.0,1.0,92,0.00,,CLR,0.00,VWS V14.00,2013-01-21 10:43:00,
2013-01-21 05:48:00,28.8,26.8,29.96,NE,51,0.0,1.0,92,0.00,,CLR,0.00,VWS V14.00,2013-01-21 10:48:00,
2013-01-21 05:53:00,28.9,26.9,29.96,NE,51,0.0,1.0,92,0.00,,CLR,0.00,VWS V14.00,2013-01-21 10:53:00,
2013-01-21 05:58:00,29.2,27.2,29.96,NE,51,0.0,1.0,92,0.00,,CLR,0.00,VWS V14.00,2013-01-21 10:58:00,
2013-01-21 06:00:00,29.2,27.2,29.96,NE,51,0.0,1.0,92,0.00,,CLR,0.00,VWS V14.00,2013-01-21 11:00:00,
2013-01-21 06:03:00,29.1,26.8,29.96,NE,51,0.0,0.0,91,0.00,,CLR,0.00,VWS V14.00,2013-01-21 11:03:00,
2013-01-21 06:08:00,28.9,26.6,29.96,NE,51,0.0,0.0,91,0.00,,CLR,0.00,VWS V14.00,2013-01-21 11:08:00,
2013-01-21 06:13:00,28.8,26.5,29.96,NE,51,0.0,0.0,91,0.00,,CLR,0.00,VWS V14.00,2013-01-21 11:13:00,
2013-01-21 06:18:00,28.8,26.8,29.95,NE,51,0.0,0.0,92,0.00,,CLR,0.00,VWS V14.00,2013-01-21 11:18:00,
2013-01-21 06:23:00,28.8,26.8,29.95,NE,51,0.0,0.0,92,0.00,,CLR,0.00,VWS V14.00,2013-01-21 11:23:00,
2013-01-21 06:28:00,28.8,26.5,29.95,NE,51,0.0,0.0,91,0.00,,CLR,0.00,VWS V14.00,2013-01-21 11:28:00,
2013-01-21 06:30:00,28.7,26.4,29.95,NE,51,0.0,0.0,91,0.00,,CLR,0.00,VWS V14.00,2013-01-21 11:30:00,
2013-01-21 06:33:00,28.6,26.3,29.95,NE,51,0.0,0.0,91,0.00,,CLR,0.00,VWS V14.00,2013-01-21 11:33:00,
2013-01-21 06:38:00,28.5,26.2,29.95,NE,51,0.0,0.0,91,0.00,,CLR,0.00,VWS V14.00,2013-01-21 11:38:00,
2013-01-21 06:43:00,28.3,26.3,29.95,NE,51,0.0,0.0,92,0.00,,CLR,0.00,VWS V14.00,2013-01-21 11:43:00,
2013-01-21 06:48:00,28.1,25.8,29.95,NE,51,0.0,0.0,91,0.00,,CLR,0.00,VWS V14.00,2013-01-21 11:48:00,
2013-01-21 06:53:00,27.6,25.3,29.95,NNW,335,0.0,3.0,91,0.00,,CLR,0.00,VWS V14.00,2013-01-21 11:53:00,
2013-01-21 06:58:00,27.2,25.2,29.95,NNW,339,2.0,5.0,92,0.00,,CLR,0.00,VWS V14.00,2013-01-21 11:58:00,
2013-01-21 07:03:00,27.1,25.1,29.96,NNW,339,0.0,1.0,92,0.00,,CLR,0.00,VWS V14.00,2013-01-21 12:03:00,
2013-01-21 07:08:00,27.0,25.0,29.96,NNW,339,0.0,1.0,92,0.00,,CLR,0.00,VWS V14.00,2013-01-21 12:08:00,
2013-01-21 07:13:00,27.1,25.4,29.96,NNW,339,0.0,1.0,93,0.00,,CLR,0.00,VWS V14.00,2013-01-21 12:13:00,
2013-01-21 07:18:00,27.0,25.2,29.96,NNW,339,0.0,1.0,93,0.00,,CLR,0.00,VWS V14.00,2013-01-21 12:18:00,
2013-01-21 07:23:00,27.0,25.0,29.96,NNW,339,0.0,1.0,92,0.00,,CLR,0.00,VWS V14.00,2013-01-21 12:23:00,
2013-01-21 07:28:00,26.9,25.1,29.96,NNW,339,0.0,1.0,93,0.00,,CLR,0.00,VWS V14.00,2013-01-21 12:28:00,
2013-01-21 07:30:00,26.9,25.1,29.96,NNW,339,0.0,1.0,93,0.00,,CLR,0.00,VWS V14.00,2013-01-21 12:30:00,
2013-01-21 07:33:00,27.0,25.2,29.96,NNW,339,0.0,0.0,93,0.00,,CLR,0.00,VWS V14.00,2013-01-21 12:33:00,
2013-01-21 07:38:00,27.0,25.2,29.96,NNW,339,0.0,1.0,93,0.00,,CLR,0.00,VWS V14.00,2013-01-21 12:38:00,
2013-01-21 07:43:00,27.1,25.4,29.96,NNW,339,0.0,1.0,93,0.00,,CLR,0.00,VWS V14.00,2013-01-21 12:43:00,
2013-01-21 07:48:00,27.1,25.4,29.96,NW,312,0.0,1.0,93,0.00,,CLR,0.00,VWS V14.00,2013-01-21 12:48:00,
2013-01-21 07:53:00,27.3,25.5,29.96,NW,312,0.0,1.0,93,0.00,,CLR,0.00,VWS V14.00,2013-01-21 12:53:00,
2013-01-21 07:58:00,27.4,25.6,29.96,NW,312,0.0,1.0,93,0.00,,CLR,0.00,VWS V14.00,2013-01-21 12:58:00,
2013-01-21 08:00:00,27.4,25.6,29.96,NW,312,0.0,1.0,93,0.00,,CLR,0.00,VWS V14.00,2013-01-21 13:00:00,
2013-01-21 08:03:00,27.5,25.8,29.96,NW,312,0.0,0.0,93,0.00,,CLR,0.00,VWS V14.00,2013-01-21 13:03:00,
2013-01-21 08:08:00,27.6,25.8,29.96,NW,312,0.0,0.0,93,0.00,,CLR,0.00,VWS V14.00,2013-01-21 13:08:00,
2013-01-21 08:13:00,27.7,25.9,29.96,NW,312,0.0,0.0,93,0.00,,CLR,0.00,VWS V14.00,2013-01-21 13:13:00,
2013-01-21 08:18:00,27.7,25.9,29.95,NW,312,0.0,0.0,93,0.00,,CLR,0.00,VWS V14.00,2013-01-21 13:18:00,
2013-01-21 08:23:00,27.8,26.0,29.95,NW,312,0.0,0.0,93,0.00,,CLR,0.00,VWS V14.00,2013-01-21 13:23:00,
2013-01-21 08:28:00,27.8,26.0,29.95,NW,312,0.0,0.0,93,0.00,,CLR,0.00,VWS V14.00,2013-01-21 13:28:00,
2013-01-21 08:30:00,27.9,26.1,29.96,NW,312,0.0,0.0,93,0.00,,CLR,0.00,VWS V14.00,2013-01-21 13:30:00,
2013-01-21 08:33:00,27.9,26.1,29.96,NW,312,0.0,0.0,93,0.00,,CLR,0.00,VWS V14.00,2013-01-21 13:33:00,
2013-01-21 08:38:00,28.0,26.2,29.96,NW,312,0.0,0.0,93,0.00,,CLR,0.00,VWS V14.00,2013-01-21 13:38:00,
2013-01-21 08:43:00,28.2,26.4,29.96,NW,312,0.0,0.0,93,0.00,,CLR,0.00,VWS V14.00,2013-01-21 13:43:00,
2013-01-21 08:48:00,28.8,27.0,29.96,NW,312,0.0,0.0,93,0.00,,CLR,0.00,VWS V14.00,2013-01-21 13:48:00,
2013-01-21 08:53:00,29.1,27.3,29.96,NW,312,0.0,0.0,93,0.00,,CLR,0.00,VWS V14.00,2013-01-21 13:53:00,
2013-01-21 08:59:00,29.4,27.6,29.96,NW,312,0.0,0.0,93,0.00,,CLR,0.00,VWS V14.00,2013-01-21 13:59:00,
2013-01-21 09:00:00,29.5,27.7,29.96,NW,312,0.0,0.0,93,0.00,,CLR,0.00,VWS V14.00,2013-01-21 14:00:00,
2013-01-21 09:03:00,29.8,28.0,29.96,NW,312,0.0,0.0,93,0.00,,CLR,0.00,VWS V14.00,2013-01-21 14:03:00,
2013-01-21 09:09:00,30.1,28.3,29.96,NW,312,0.0,0.0,93,0.00,,CLR,0.00,VWS V14.00,2013-01-21 14:09:00,
2013-01-21 09:13:00,30.5,28.7,29.96,NW,312,0.0,0.0,93,0.00,,CLR,0.00,VWS V14.00,2013-01-21 14:13:00,
2013-01-21 09:19:00,30.9,29.1,29.96,NW,312,0.0,0.0,93,0.00,,CLR,0.00,VWS V14.00,2013-01-21 14:19:00,
2013-01-21 09:24:00,31.5,29.5,29.96,NW,312,0.0,0.0,92,0.00,,CLR,0.00,VWS V14.00,2013-01-21 14:24:00,
2013-01-21 09:29:00,32.1,30.0,29.96,NW,312,0.0,0.0,92,0.00,,CLR,0.00,VWS V14.00,2013-01-21 14:29:00,
2013-01-21 09:30:00,32.3,30.2,29.97,NW,312,0.0,0.0,92,0.00,,CLR,0.00,VWS V14.00,2013-01-21 14:30:00,
2013-01-21 09:34:00,32.7,30.6,29.97,NW,312,0.0,0.0,92,0.00,,CLR,0.00,VWS V14.00,2013-01-21 14:34:00,
2013-01-21 09:39:00,33.3,31.0,29.97,NW,312,0.0,0.0,91,0.00,,CLR,0.00,VWS V14.00,2013-01-21 14:39:00,
2013-01-21 09:44:00,33.9,31.6,29.97,NW,312,0.0,0.0,91,0.00,,CLR,0.00,VWS V14.00,2013-01-21 14:44:00,
2013-01-21 09:49:00,34.5,31.6,29.97,NW,312,0.0,0.0,89,0.00,,CLR,0.00,VWS V14.00,2013-01-21 14:49:00,
2013-01-21 09:54:00,35.4,32.5,29.97,NW,312,0.0,0.0,89,0.00,,CLR,0.00,VWS V14.00,2013-01-21 14:54:00,
2013-01-21 09:59:00,36.0,32.8,29.97,NW,312,0.0,0.0,88,0.00,,CLR,0.00,VWS V14.00,2013-01-21 14:59:00,
2013-01-21 10:00:00,36.1,32.9,29.98,NW,312,0.0,0.0,88,0.00,,CLR,0.00,VWS V14.00,2013-01-21 15:00:00,
2013-01-21 10:04:00,36.5,33.3,29.98,NW,312,0.0,0.0,88,0.00,,CLR,0.00,VWS V14.00,2013-01-21 15:04:00,
2013-01-21 10:08:00,37.3,34.1,29.98,NW,312,0.0,0.0,88,0.00,,CLR,0.00,VWS V14.00,2013-01-21 15:08:00,
2013-01-21 10:13:00,38.3,34.8,29.98,NW,312,0.0,0.0,87,0.00,,CLR,0.00,VWS V14.00,2013-01-21 15:13:00,
2013-01-21 10:18:00,39.2,35.4,29.97,NW,312,0.0,0.0,86,0.00,,CLR,0.00,VWS V14.00,2013-01-21 15:18:00,
2013-01-21 10:23:00,40.2,35.8,29.97,NW,312,0.0,0.0,84,0.00,,CLR,0.00,VWS V14.00,2013-01-21 15:23:00,
2013-01-21 10:28:00,40.9,35.8,29.97,NW,312,0.0,0.0,82,0.00,,CLR,0.00,VWS V14.00,2013-01-21 15:28:00,
2013-01-21 10:30:00,41.1,35.7,29.97,NW,312,0.0,0.0,81,0.00,,CLR,0.00,VWS V14.00,2013-01-21 15:30:00,
2013-01-21 10:33:00,41.9,36.2,29.97,NW,312,0.0,0.0,80,0.00,,CLR,0.00,VWS V14.00,2013-01-21 15:33:00,
2013-01-21 10:38:00,42.8,36.4,29.97,WNW,295,0.0,0.0,78,0.00,,CLR,0.00,VWS V14.00,2013-01-21 15:38:00,
2013-01-21 10:43:00,44.1,36.0,29.97,WSW,238,2.0,3.0,73,0.00,,CLR,0.00,VWS V14.00,2013-01-21 15:43:00,
2013-01-21 10:48:00,45.3,37.2,29.97,NW,309,0.0,4.0,73,0.00,,CLR,0.00,VWS V14.00,2013-01-21 15:48:00,
2013-01-21 10:53:00,46.3,36.0,29.97,West,261,0.0,4.0,67,0.00,,CLR,0.00,VWS V14.00,2013-01-21 15:53:00,
2013-01-21 10:58:00,47.0,35.9,29.97,WSW,242,0.0,4.0,65,0.00,,CLR,0.00,VWS V14.00,2013-01-21 15:58:00,
2013-01-21 11:00:00,47.2,35.7,29.97,WSW,242,0.0,4.0,64,0.00,,CLR,0.00,VWS V14.00,2013-01-21 16:00:00,
2013-01-21 11:03:00,47.5,35.9,29.97,WSW,242,0.0,1.0,64,0.00,,CLR,0.00,VWS V14.00,2013-01-21 16:03:00,
2013-01-21 11:08:00,48.0,36.8,29.97,WSW,253,0.0,3.0,65,0.00,,CLR,0.00,VWS V14.00,2013-01-21 16:08:00,
2013-01-21 11:13:00,48.6,35.8,29.97,SW,225,2.0,5.0,61,0.00,,CLR,0.00,VWS V14.00,2013-01-21 16:13:00,
2013-01-21 11:18:00,49.1,35.8,29.96,SW,225,0.0,5.0,60,0.00,,CLR,0.00,VWS V14.00,2013-01-21 16:18:00,
2013-01-21 11:23:00,49.4,35.3,29.96,WNW,282,2.0,5.0,58,0.00,,CLR,0.00,VWS V14.00,2013-01-21 16:23:00,
2013-01-21 11:28:00,49.8,35.6,29.96,WNW,283,0.0,5.0,58,0.00,,CLR,0.00,VWS V14.00,2013-01-21 16:28:00,
2013-01-21 11:30:00,49.9,35.3,29.96,WNW,283,0.0,5.0,57,0.00,,CLR,0.00,VWS V14.00,2013-01-21 16:30:00,
2013-01-21 11:33:00,50.2,35.1,29.96,SW,221,3.0,7.0,56,0.00,,CLR,0.00,VWS V14.00,2013-01-21 16:33:00,
2013-01-21 11:38:00,50.6,35.0,29.96,SSW,194,0.0,7.0,55,0.00,,CLR,0.00,VWS V14.00,2013-01-21 16:38:00,
2013-01-21 11:43:00,51.1,35.5,29.96,WSW,245,0.0,7.0,55,0.00,,CLR,0.00,VWS V14.00,2013-01-21 16:43:00,
2013-01-21 11:48:00,51.5,35.4,29.95,SW,229,4.0,7.0,54,0.00,,CLR,0.00,VWS V14.00,2013-01-21 16:48:00,
2013-01-21 11:53:00,51.6,34.6,29.95,WSW,244,0.0,8.0,52,0.00,,CLR,0.00,VWS V14.00,2013-01-21 16:53:00,
2013-01-21 11:58:00,51.7,34.2,29.95,WSW,244,0.0,8.0,51,0.00,,CLR,0.00,VWS V14.00,2013-01-21 16:58:00,
2013-01-21 12:00:00,51.7,34.7,29.93,SW,225,0.0,8.0,52,0.00,,CLR,0.00,VWS V14.00,2013-01-21 17:00:00,
2013-01-21 12:03:00,52.0,34.9,29.93,SW,236,0.0,3.0,52,0.00,,CLR,0.00,VWS V14.00,2013-01-21 17:03:00,
2013-01-21 12:08:00,52.5,34.4,29.93,SW,219,4.0,6.0,50,0.00,,CLR,0.00,VWS V14.00,2013-01-21 17:08:00,
2013-01-21 12:13:00,52.9,34.8,29.93,SW,231,0.0,6.0,50,0.00,,CLR,0.00,VWS V14.00,2013-01-21 17:13:00,
2013-01-21 12:18:00,53.1,34.5,29.92,SW,214,1.0,9.0,49,0.00,,CLR,0.00,VWS V14.00,2013-01-21 17:18:00,
2013-01-21 12:23:00,53.2,35.1,29.92,SW,219,0.0,9.0,50,0.00,,CLR,0.00,VWS V14.00,2013-01-21 17:23:00,
2013-01-21 12:28:00,53.4,34.7,29.92,SW,220,0.0,9.0,49,0.00,,CLR,0.00,VWS V14.00,2013-01-21 17:28:00,
2013-01-21 12:30:00,53.4,34.7,29.90,East,87,0.0,9.0,49,0.00,,CLR,0.00,VWS V14.00,2013-01-21 17:30:00,
2013-01-21 12:33:00,53.6,34.9,29.90,SSW,200,1.0,1.0,49,0.00,,CLR,0.00,VWS V14.00,2013-01-21 17:33:00,
2013-01-21 12:38:00,54.2,35.5,29.90,WNW,283,5.0,10.0,49,0.00,,CLR,0.00,VWS V14.00,2013-01-21 17:38:00,
2013-01-21 12:43:00,54.6,34.2,29.90,WSW,250,2.0,10.0,46,0.00,,CLR,0.00,VWS V14.00,2013-01-21 17:43:00,
2013-01-21 12:48:00,54.9,35.1,29.90,West,277,3.0,10.0,47,0.00,,CLR,0.00,VWS V14.00,2013-01-21 17:48:00,
2013-01-21 12:53:00,55.3,34.9,29.90,SSW,211,2.0,10.0,46,0.00,,CLR,0.00,VWS V14.00,2013-01-21 17:53:00,
2013-01-21 12:58:00,55.4,33.9,29.90,SW,218,4.0,10.0,44,0.00,,CLR,0.00,VWS V14.00,2013-01-21 17:58:00,
2013-01-21 13:00:00,55.4,34.4,29.88,SW,231,1.0,10.0,45,0.00,,CLR,0.00,VWS V14.00,2013-01-21 18:00:00,
2013-01-21 13:03:00,55.5,34.5,29.88,SW,229,0.0,2.0,45,0.00,,CLR,0.00,VWS V14.00,2013-01-21 18:03:00,
2013-01-21 13:08:00,56.0,34.4,29.88,SW,224,7.0,10.0,44,0.00,,CLR,0.00,VWS V14.00,2013-01-21 18:08:00,
2013-01-21 13:13:00,56.3,35.2,29.88,SSW,205,0.0,10.0,45,0.00,,CLR,0.00,VWS V14.00,2013-01-21 18:13:00,
2013-01-21 13:19:00,56.3,34.1,29.87,SW,229,1.0,10.0,43,0.00,,CLR,0.00,VWS V14.00,2013-01-21 18:19:00,
2013-01-21 13:23:00,56.4,34.2,29.87,NNW,330,2.0,10.0,43,0.00,,CLR,0.00,VWS V14.00,2013-01-21 18:23:00,
2013-01-21 13:28:00,56.8,34.6,29.87,SW,222,3.0,10.0,43,0.00,,CLR,0.00,VWS V14.00,2013-01-21 18:28:00,
2013-01-21 13:30:00,56.8,35.1,29.86,SW,223,3.0,10.0,44,0.00,,CLR,0.00,VWS V14.00,2013-01-21 18:30:00,
2013-01-21 13:33:00,56.9,34.7,29.86,SW,222,3.0,6.0,43,0.00,,CLR,0.00,VWS V14.00,2013-01-21 18:33:00,
2013-01-21 13:38:00,57.1,34.8,29.86,SW,228,8.0,9.0,43,0.00,,CLR,0.00,VWS V14.00,2013-01-21 18:38:00,
2013-01-21 13:43:00,57.3,34.4,29.86,SW,229,5.0,11.0,42,0.00,,CLR,0.00,VWS V14.00,2013-01-21 18:43:00,
2013-01-21 13:48:00,57.5,34.6,29.85,West,260,5.0,11.0,42,0.00,,CLR,0.00,VWS V14.00,2013-01-21 18:48:00,
2013-01-21 13:53:00,57.7,35.4,29.85,SSW,211,2.0,12.0,43,0.00,,CLR,0.00,VWS V14.00,2013-01-21 18:53:00,
2013-01-21 13:58:00,57.7,34.2,29.85,SW,235,9.0,12.0,41,0.00,,CLR,0.00,VWS V14.00,2013-01-21 18:58:00,
2013-01-21 14:00:00,57.7,34.2,29.85,SW,235,3.0,12.0,41,0.00,,CLR,0.00,VWS V14.00,2013-01-21 19:00:00,
2013-01-21 14:03:00,57.8,34.9,29.85,SW,236,0.0,6.0,42,0.00,,CLR,0.00,VWS V14.00,2013-01-21 19:03:00,
2013-01-21 14:08:00,58.1,35.2,29.85,SW,235,1.0,6.0,42,0.00,,CLR,0.00,VWS V14.00,2013-01-21 19:08:00,
2013-01-21 14:13:00,58.9,35.3,29.85,WSW,255,2.0,7.0,41,0.00,,CLR,0.00,VWS V14.00,2013-01-21 19:13:00,
2013-01-21 14:18:00,59.0,34.1,29.85,SW,229,6.0,13.0,39,0.00,,CLR,0.00,VWS V14.00,2013-01-21 19:18:00,
2013-01-21 14:23:00,59.0,34.1,29.85,West,265,7.0,13.0,39,0.00,,CLR,0.00,VWS V14.00,2013-01-21 19:23:00,
2013-01-21 14:28:00,59.3,34.4,29.85,West,273,6.0,13.0,39,0.00,,CLR,0.00,VWS V14.00,2013-01-21 19:28:00,
2013-01-21 14:30:00,59.3,33.7,29.84,WSW,258,3.0,13.0,38,0.00,,CLR,0.00,VWS V14.00,2013-01-21 19:30:00,
2013-01-21 14:33:00,59.5,34.5,29.84,WSW,239,5.0,9.0,39,0.00,,CLR,0.00,VWS V14.00,2013-01-21 19:33:00,
2013-01-21 14:38:00,59.5,34.5,29.84,SW,218,1.0,9.0,39,0.00,,CLR,0.00,VWS V14.00,2013-01-21 19:38:00,
2013-01-21 14:43:00,59.5,35.8,29.84,SW,232,1.0,9.0,41,0.00,,CLR,0.00,VWS V14.00,2013-01-21 19:43:00,
2013-01-21 14:48:00,59.6,34.0,29.85,WNW,290,3.0,9.0,38,0.00,,CLR,0.00,VWS V14.00,2013-01-21 19:48:00,
2013-01-21 14:53:00,59.8,34.2,29.85,WSW,244,4.0,9.0,38,0.00,,CLR,0.00,VWS V14.00,2013-01-21 19:53:00,
2013-01-21 14:58:00,60.2,34.5,29.85,WSW,255,2.0,10.0,38,0.00,,CLR,0.00,VWS V14.00,2013-01-21 19:58:00,
2013-01-21 15:00:00,60.3,33.9,29.84,SW,228,9.0,10.0,37,0.00,,CLR,0.00,VWS V14.00,2013-01-21 20:00:00,
2013-01-21 15:04:00,60.1,34.4,29.84,SSE,167,2.0,14.0,38,0.00,,CLR,0.00,VWS V14.00,2013-01-21 20:04:00,
2013-01-21 15:09:00,60.0,35.0,29.84,SW,215,4.0,14.0,39,0.00,,CLR,0.00,VWS V14.00,2013-01-21 20:09:00,
2013-01-21 15:14:00,59.8,34.2,29.84,SW,215,0.0,14.0,38,0.00,,CLR,0.00,VWS V14.00,2013-01-21 20:14:00,
2013-01-21 15:19:00,59.9,34.9,29.84,WSW,250,7.0,14.0,39,0.00,,CLR,0.00,VWS V14.00,2013-01-21 20:19:00,
2013-01-21 15:24:00,60.2,34.5,29.84,SSW,199,6.0,14.0,38,0.00,,CLR,0.00,VWS V14.00,2013-01-21 20:24:00,
2013-01-21 15:29:00,60.5,35.4,29.84,West,260,4.0,14.0,39,0.00,,CLR,0.00,VWS V14.00,2013-01-21 20:29:00,
2013-01-21 15:30:00,60.6,34.9,29.83,SW,219,5.0,14.0,38,0.00,,CLR,0.00,VWS V14.00,2013-01-21 20:30:00,
2013-01-21 15:34:00,60.8,35.7,29.83,WSW,240,4.0,6.0,39,0.00,,CLR,0.00,VWS V14.00,2013-01-21 20:34:00,
2013-01-21 15:39:00,60.9,35.8,29.83,WSW,256,5.0,11.0,39,0.00,,CLR,0.00,VWS V14.00,2013-01-21 20:39:00,
2013-01-21 15:44:00,61.1,34.7,29.83,WSW,255,4.0,11.0,37,0.00,,CLR,0.00,VWS V14.00,2013-01-21 20:44:00,
2013-01-21 15:49:00,61.2,34.7,29.83,WSW,257,3.0,11.0,37,0.00,,CLR,0.00,VWS V14.00,2013-01-21 20:49:00,
2013-01-21 15:54:00,61.3,35.5,29.83,SW,235,3.0,11.0,38,0.00,,CLR,0.00,VWS V14.00,2013-01-21 20:54:00,
2013-01-21 15:59:00,61.3,34.8,29.83,West,268,4.0,11.0,37,0.00,,CLR,0.00,VWS V14.00,2013-01-21 20:59:00,
2013-01-21 16:00:00,61.2,35.4,29.83,WSW,240,1.0,11.0,38,0.00,,CLR,0.00,VWS V14.00,2013-01-21 21:00:00,
2013-01-21 16:04:00,61.1,36.0,29.83,SW,226,2.0,6.0,39,0.00,,CLR,0.00,VWS V14.00,2013-01-21 21:04:00,
2013-01-21 16:09:00,61.3,35.5,29.83,WSW,253,0.0,6.0,38,0.00,,CLR,0.00,VWS V14.00,2013-01-21 21:09:00,
2013-01-21 16:14:00,61.6,36.4,29.83,West,263,0.0,6.0,39,0.00,,CLR,0.00,VWS V14.00,2013-01-21 21:14:00,
2013-01-21 16:19:00,61.6,36.4,29.83,West,277,1.0,8.0,39,0.00,,CLR,0.00,VWS V14.00,2013-01-21 21:19:00,
2013-01-21 16:24:00,61.7,35.9,29.83,NW,314,4.0,8.0,38,0.00,,CLR,0.00,VWS V14.00,2013-01-21 21:24:00,
2013-01-21 16:29:00,61.6,35.1,29.83,WSW,243,2.0,10.0,37,0.00,,CLR,0.00,VWS V14.00,2013-01-21 21:29:00,
2013-01-21 16:30:00,61.5,35.7,29.83,WSW,238,3.0,10.0,38,0.00,,CLR,0.00,VWS V14.00,2013-01-21 21:30:00,
2013-01-21 16:34:00,61.3,35.5,29.83,West,276,4.0,6.0,38,0.00,,CLR,0.00,VWS V14.00,2013-01-21 21:34:00,
2013-01-21 16:39:00,61.1,35.3,29.83,WSW,249,6.0,9.0,38,0.00,,CLR,0.00,VWS V14.00,2013-01-21 21:39:00,
2013-01-21 16:44:00,61.1,35.3,29.83,WNW,284,3.0,9.0,38,0.00,,CLR,0.00,VWS V14.00,2013-01-21 21:44:00,
2013-01-21 16:49:00,60.9,35.1,29.83,West,263,0.0,9.0,38,0.00,,CLR,0.00,VWS V14.00,2013-01-21 21:49:00,
2013-01-21 16:54:00,60.6,34.9,29.83,WNW,298,0.0,9.0,38,0.00,,CLR,0.00,VWS V14.00,2013-01-21 21:54:00,
2013-01-21 16:59:00,60.3,34.6,29.83,WNW,288,9.0,9.0,38,0.00,,CLR,0.00,VWS V14.00,2013-01-21 21:59:00,
2013-01-21 17:00:00,60.1,35.1,29.83,WNW,300,5.0,9.0,39,0.00,,CLR,0.00,VWS V14.00,2013-01-21 22:00:00,
2013-01-21 17:04:00,59.9,35.5,29.83,WNW,289,4.0,9.0,40,0.00,,CLR,0.00,VWS V14.00,2013-01-21 22:04:00,
2013-01-21 17:09:00,59.3,34.4,29.83,WNW,293,6.0,13.0,39,0.00,,CLR,0.00,VWS V14.00,2013-01-21 22:09:00,
2013-01-21 17:14:00,58.8,33.9,29.83,NW,319,3.0,13.0,39,0.00,,CLR,0.00,VWS V14.00,2013-01-21 22:14:00,
2013-01-21 17:19:00,57.9,33.8,29.83,NW,311,12.0,18.0,40,0.00,,CLR,0.00,VWS V14.00,2013-01-21 22:19:00,
2013-01-21 17:24:00,57.2,33.7,29.83,WNW,297,6.0,18.0,41,0.00,,CLR,0.00,VWS V14.00,2013-01-21 22:24:00,
2013-01-21 17:29:00,56.5,33.1,29.83,WSW,251,6.0,18.0,41,0.00,,CLR,0.00,VWS V14.00,2013-01-21 22:29:00,
2013-01-21 17:30:00,56.2,33.4,29.84,NW,304,3.0,18.0,42,0.00,,CLR,0.00,VWS V14.00,2013-01-21 22:30:00,
2013-01-21 17:34:00,55.6,33.5,29.84,West,280,7.0,11.0,43,0.00,,CLR,0.00,VWS V14.00,2013-01-21 22:34:00,
2013-01-21 17:39:00,54.8,32.2,29.84,NW,309,2.0,15.0,42,0.00,,CLR,0.00,VWS V14.00,2013-01-21 22:39:00,
2013-01-21 17:44:00,54.1,31.5,29.84,NW,312,4.0,15.0,42,0.00,,CLR,0.00,VWS V14.00,2013-01-21 22:44:00,
2013-01-21 17:49:00,53.5,31.0,29.85,WNW,295,3.0,15.0,42,0.00,,CLR,0.00,VWS V14.00,2013-01-21 22:49:00,
2013-01-21 17:54:00,53.1,30.6,29.85,WNW,291,6.0,15.0,42,0.00,,CLR,0.00,VWS V14.00,2013-01-21 22:54:00,
2013-01-21 17:59:00,52.7,30.3,29.85,WNW,303,3.0,15.0,42,0.00,,CLR,0.00,VWS V14.00,2013-01-21 22:59:00,
2013-01-21 18:00:00,52.6,30.8,29.86,NW,305,6.0,15.0,43,0.00,,CLR,0.00,VWS V14.00,2013-01-21 23:00:00,
2013-01-21 18:04:00,52.2,30.4,29.86,WNW,297,1.0,11.0,43,0.00,,CLR,0.00,VWS V14.00,2013-01-21 23:04:00,
2013-01-21 18:09:00,51.7,29.9,29.86,WNW,299,1.0,11.0,43,0.00,,CLR,0.00,VWS V14.00,2013-01-21 23:09:00,
2013-01-21 18:14:00,51.4,29.1,29.86,WNW,302,6.0,13.0,42,0.00,,CLR,0.00,VWS V14.00,2013-01-21 23:14:00,
2013-01-21 18:19:00,51.0,28.1,29.87,NNW,339,7.0,15.0,41,0.00,,CLR,0.00,VWS V14.00,2013-01-21 23:19:00,
2013-01-21 18:24:00,50.3,25.0,29.87,NW,325,12.0,29.0,37,0.00,,CLR,0.00,VWS V14.00,2013-01-21 23:24:00,
2013-01-21 18:29:00,49.7,25.1,29.87,NNW,328,14.0,29.0,38,0.00,,CLR,0.00,VWS V14.00,2013-01-21 23:29:00,
2013-01-21 18:30:00,49.5,24.3,29.88,NW,313,5.0,29.0,37,0.00,,CLR,0.00,VWS V14.00,2013-01-21 23:30:00,
2013-01-21 18:34:00,49.1,24.6,29.88,NNW,338,8.0,15.0,38,0.00,,CLR,0.00,VWS V14.00,2013-01-21 23:34:00,
2013-01-21 18:39:00,48.5,22.8,29.88,WNW,297,2.0,16.0,36,0.00,,CLR,0.00,VWS V14.00,2013-01-21 23:39:00,
2013-01-21 18:44:00,48.1,23.7,29.88,WNW,298,13.0,16.0,38,0.00,,CLR,0.00,VWS V14.00,2013-01-21 23:44:00,
2013-01-21 18:49:00,47.9,22.9,29.89,WNW,299,3.0,16.0,37,0.00,,CLR,0.00,VWS V14.00,2013-01-21 23:49:00,
2013-01-21 18:54:00,47.6,23.3,29.89,West,276,0.0,17.0,38,0.00,,CLR,0.00,VWS V14.00,2013-01-21 23:54:00,
2013-01-21 18:59:00,47.2,22.3,29.89,WNW,288,4.0,17.0,37,0.00,,CLR,0.00,VWS V14.00,2013-01-21 23:59:00,
2013-01-21 19:00:00,47.2,22.9,29.90,West,262,6.0,17.0,38,0.00,,CLR,0.00,VWS V14.00,2013-01-22 00:00:00,
2013-01-21 19:04:00,47.0,22.7,29.90,NW,326,7.0,12.0,38,0.00,,CLR,0.00,VWS V14.00,2013-01-22 00:04:00,
2013-01-21 19:09:00,46.8,22.5,29.90,WNW,293,1.0,12.0,38,0.00,,CLR,0.00,VWS V14.00,2013-01-22 00:09:00,
2013-01-21 19:14:00,46.6,22.4,29.90,West,269,0.0,12.0,38,0.00,,CLR,0.00,VWS V14.00,2013-01-22 00:14:00,
2013-01-21 19:19:00,46.3,22.1,29.90,WNW,293,3.0,12.0,38,0.00,,CLR,0.00,VWS V14.00,2013-01-22 00:19:00,
2013-01-21 19:24:00,46.0,22.5,29.90,NW,313,0.0,12.0,39,0.00,,CLR,0.00,VWS V14.00,2013-01-22 00:24:00,
2013-01-21 19:29:00,45.6,22.7,29.90,NW,316,5.0,12.0,40,0.00,,CLR,0.00,VWS V14.00,2013-01-22 00:29:00,
2013-01-21 19:30:00,45.5,22.0,29.90,NW,307,3.0,12.0,39,0.00,,CLR,0.00,VWS V14.00,2013-01-22 00:30:00,
2013-01-21 19:34:00,45.4,21.9,29.90,NW,312,2.0,10.0,39,0.00,,CLR,0.00,VWS V14.00,2013-01-22 00:34:00,
2013-01-21 19:39:00,45.5,22.0,29.90,NNW,330,7.0,19.0,39,0.00,,CLR,0.00,VWS V14.00,2013-01-22 00:39:00,
2013-01-21 19:44:00,45.5,22.6,29.90,West,273,6.0,19.0,40,0.00,,CLR,0.00,VWS V14.00,2013-01-22 00:44:00,
2013-01-21 19:49:00,45.4,21.9,29.90,NNW,339,7.0,19.0,39,0.00,,CLR,0.00,VWS V14.00,2013-01-22 00:49:00,
2013-01-21 19:54:00,45.2,21.7,29.90,WNW,291,10.0,19.0,39,0.00,,CLR,0.00,VWS V14.00,2013-01-22 00:54:00,
2013-01-21 19:59:00,45.3,21.8,29.90,NW,321,9.0,19.0,39,0.00,,CLR,0.00,VWS V14.00,2013-01-22 00:59:00,
2013-01-21 20:00:00,45.3,21.8,29.91,NNW,333,12.0,19.0,39,0.00,,CLR,0.00,VWS V14.00,2013-01-22 01:00:00,
2013-01-21 20:04:00,45.3,21.8,29.91,NNW,334,6.0,16.0,39,0.00,,CLR,0.00,VWS V14.00,2013-01-22 01:04:00,
2013-01-21 20:09:00,45.2,21.7,29.91,NW,324,11.0,16.0,39,0.00,,CLR,0.00,VWS V14.00,2013-01-22 01:09:00,
2013-01-21 20:14:00,45.0,22.1,29.91,NW,319,3.0,16.0,40,0.00,,CLR,0.00,VWS V14.00,2013-01-22 01:14:00,
2013-01-21 20:19:00,44.7,21.9,29.91,WNW,285,5.0,16.0,40,0.00,,CLR,0.00,VWS V14.00,2013-01-22 01:19:00,
2013-01-21 20:24:00,44.6,21.2,29.91,NW,317,11.0,16.0,39,0.00,,CLR,0.00,VWS V14.00,2013-01-22 01:24:00,
2013-01-21 20:29:00,44.7,21.3,29.91,NNW,342,7.0,17.0,39,0.00,,CLR,0.00,VWS V14.00,2013-01-22 01:29:00,
2013-01-21 20:30:00,44.7,21.9,29.90,NNW,339,7.0,17.0,40,0.00,,CLR,0.00,VWS V14.00,2013-01-22 01:30:00,
2013-01-21 20:34:00,44.6,21.8,29.90,NNW,328,9.0,14.0,40,0.00,,CLR,0.00,VWS V14.00,2013-01-22 01:34:00,
2013-01-21 20:39:00,44.5,21.7,29.90,NW,314,10.0,14.0,40,0.00,,CLR,0.00,VWS V14.00,2013-01-22 01:39:00,
2013-01-21 20:44:00,44.4,21.6,29.90,NW,315,5.0,16.0,40,0.00,,CLR,0.00,VWS V14.00,2013-01-22 01:44:00,
2013-01-21 20:49:00,44.3,21.5,29.90,NNW,345,13.0,16.0,40,0.00,,CLR,0.00,VWS V14.00,2013-01-22 01:49:00,
2013-01-21 20:54:00,44.2,21.4,29.90,NNW,330,6.0,18.0,40,0.00,,CLR,0.00,VWS V14.00,2013-01-22 01:54:00,
2013-01-21 20:59:00,44.0,21.2,29.90,NW,310,2.0,18.0,40,0.00,,CLR,0.00,VWS V14.00,2013-01-22 01:59:00,
2013-01-21 21:00:00,44.1,21.3,29.90,NW,319,9.0,18.0,40,0.00,,CLR,0.00,VWS V14.00,2013-01-22 02:00:00,
2013-01-21 21:04:00,44.1,21.9,29.90,WNW,302,6.0,10.0,41,0.00,,CLR,0.00,VWS V14.00,2013-01-22 02:04:00,
2013-01-21 21:09:00,43.8,21.6,29.90,NNW,343,4.0,11.0,41,0.00,,CLR,0.00,VWS V14.00,2013-01-22 02:09:00,
2013-01-21 21:14:00,43.7,21.6,29.90,NW,307,5.0,11.0,41,0.00,,CLR,0.00,VWS V14.00,2013-01-22 02:14:00,
2013-01-21 21:19:00,43.4,21.3,29.91,NW,318,2.0,11.0,41,0.00,,CLR,0.00,VWS V14.00,2013-01-22 02:19:00,
2013-01-21 21:24:00,43.2,21.7,29.91,NNW,329,5.0,11.0,42,0.00,,CLR,0.00,VWS V14.00,2013-01-22 02:24:00,
2013-01-21 21:29:00,43.0,21.5,29.91,NW,322,2.0,11.0,42,0.00,,CLR,0.00,VWS V14.00,2013-01-22 02:29:00,
2013-01-21 21:34:00,42.9,21.4,29.91,NW,316,0.0,10.0,42,0.00,,CLR,0.00,VWS V14.00,2013-01-22 02:34:00,
2013-01-21 21:39:00,42.8,21.9,29.91,NNW,341,6.0,11.0,43,0.00,,CLR,0.00,VWS V14.00,2013-01-22 02:39:00,
2013-01-21 21:44:00,42.7,21.8,29.91,NW,316,4.0,11.0,43,0.00,,CLR,0.00,VWS V14.00,2013-01-22 02:44:00,
2013-01-21 21:49:00,42.4,22.0,29.92,WNW,299,0.0,11.0,44,0.00,,CLR,0.00,VWS V14.00,2013-01-22 02:49:00,
2013-01-21 21:54:00,42.0,21.7,29.92,NW,314,0.0,11.0,44,0.00,,CLR,0.00,VWS V14.00,2013-01-22 02:54:00,
2013-01-21 21:59:00,42.0,21.1,29.92,WNW,294,6.0,11.0,43,0.00,,CLR,0.00,VWS V14.00,2013-01-22 02:59:00,
2013-01-21 22:00:00,42.0,21.7,29.91,NNW,328,3.0,11.0,44,0.00,,CLR,0.00,VWS V14.00,2013-01-22 03:00:00,
2013-01-21 22:04:00,41.9,21.0,29.91,NW,315,3.0,9.0,43,0.00,,CLR,0.00,VWS V14.00,2013-01-22 03:04:00,
2013-01-21 22:09:00,41.7,21.9,29.91,NW,306,0.0,9.0,45,0.00,,CLR,0.00,VWS V14.00,2013-01-22 03:09:00,
2013-01-21 22:14:00,41.4,21.7,29.91,NW,320,6.0,9.0,45,0.00,,CLR,0.00,VWS V14.00,2013-01-22 03:14:00,
2013-01-21 22:19:00,41.1,21.4,29.91,NW,322,2.0,9.0,45,0.00,,CLR,0.00,VWS V14.00,2013-01-22 03:19:00,
2013-01-21 22:24:00,40.9,21.2,29.91,NNW,328,3.0,9.0,45,0.00,,CLR,0.00,VWS V14.00,2013-01-22 03:24:00,
2013-01-21 22:29:00,40.8,21.1,29.91,NW,323,5.0,9.0,45,0.00,,CLR,0.00,VWS V14.00,2013-01-22 03:29:00,
2013-01-21 22:34:00,40.9,20.7,29.91,NW,320,0.0,5.0,44,0.00,,CLR,0.00,VWS V14.00,2013-01-22 03:34:00,
2013-01-21 22:39:00,40.9,20.7,29.91,WNW,298,0.0,5.0,44,0.00,,CLR,0.00,VWS V14.00,2013-01-22 03:39:00,
2013-01-21 22:44:00,40.7,21.0,29.91,NW,308,4.0,5.0,45,0.00,,CLR,0.00,VWS V14.00,2013-01-22 03:44:00,
2013-01-21 22:49:00,40.6,20.9,29.91,NW,308,5.0,5.0,45,0.00,,CLR,0.00,VWS V14.00,2013-01-22 03:49:00,
2013-01-21 22:54:00,40.7,21.0,29.91,NW,311,0.0,5.0,45,0.00,,CLR,0.00,VWS V14.00,2013-01-22 03:54:00,
2013-01-21 22:59:00,40.5,20.9,29.91,West,263,0.0,5.0,45,0.00,,CLR,0.00,VWS V14.00,2013-01-22 03:59:00,
2013-01-21 23:00:00,40.4,20.8,29.92,West,263,1.0,5.0,45,0.00,,CLR,0.00,VWS V14.00,2013-01-22 04:00:00,
2013-01-21 23:04:00,40.3,20.7,29.92,WSW,240,0.0,3.0,45,0.00,,CLR,0.00,VWS V14.00,2013-01-22 04:04:00,
2013-01-21 23:09:00,40.2,20.6,29.92,West,268,0.0,3.0,45,0.00,,CLR,0.00,VWS V14.00,2013-01-22 04:09:00,
2013-01-21 23:14:00,40.2,20.6,29.92,WSW,250,1.0,3.0,45,0.00,,CLR,0.00,VWS V14.00,2013-01-22 04:14:00,
2013-01-21 23:19:00,40.1,21.0,29.92,SW,231,0.0,6.0,46,0.00,,CLR,0.00,VWS V14.00,2013-01-22 04:19:00,
2013-01-21 23:24:00,40.0,20.9,29.92,WSW,248,1.0,6.0,46,0.00,,CLR,0.00,VWS V14.00,2013-01-22 04:24:00,
2013-01-21 23:29:00,39.9,20.8,29.92,WSW,248,0.0,6.0,46,0.00,,CLR,0.00,VWS V14.00,2013-01-22 04:29:00,
2013-01-21 23:34:00,39.7,20.6,29.92,WSW,246,0.0,5.0,46,0.00,,CLR,0.00,VWS V14.00,2013-01-22 04:34:00,
2013-01-21 23:39:00,39.7,20.6,29.92,West,266,0.0,5.0,46,0.00,,CLR,0.00,VWS V14.00,2013-01-22 04:39:00,
2013-01-21 23:44:00,39.7,21.1,29.92,WSW,255,0.0,6.0,47,0.00,,CLR,0.00,VWS V14.00,2013-01-22 04:44:00,
2013-01-21 23:49:00,39.7,20.6,29.93,WNW,300,8.0,10.0,46,0.00,,CLR,0.00,VWS V14.00,2013-01-22 04:49:00,
2013-01-21 23:54:00,39.8,20.7,29.93,WNW,293,3.0,10.0,46,0.00,,CLR,0.00,VWS V14.00,2013-01-22 04:54:00,
2013-01-21 23:59:00,39.8,20.7,29.93,NW,316,6.0,12.0,46,0.00,,CLR,0.00,VWS V14.00,2013-01-22 04:59:00,